sensor_id;sensor_type;location;lat;lon;timestamp;P1;durP1;ratioP1;P2;durP2;ratioP2
14984;SDS011;7588;62.368;25.902;2023-02-26T00:00:47;7.93;;;5.20;;
14984;SDS011;7588;62.368;25.902;2023-02-26T00:03:13;5.93;;;3.47;;
14984;SDS011;7588;62.368;25.902;2023-02-26T00:05:38;5.67;;;4.23;;
14984;SDS011;7588;62.368;25.902;2023-02-26T00:08:04;7.23;;;4.67;;
14984;SDS011;7588;62.368;25.902;2023-02-26T00:10:30;4.87;;;3.93;;
14984;SDS011;7588;62.368;25.902;2023-02-26T00:12:56;5.67;;;4.17;;
14984;SDS011;7588;62.368;25.902;2023-02-26T00:15:22;4.97;;;3.80;;
14984;SDS011;7588;62.368;25.902;2023-02-26T00:20:35;5.43;;;5.03;;
14984;SDS011;7588;62.368;25.902;2023-02-26T00:23:01;5.37;;;4.87;;
14984;SDS011;7588;62.368;25.902;2023-02-26T00:25:27;7.83;;;4.90;;
14984;SDS011;7588;62.368;25.902;2023-02-26T00:27:53;7.53;;;5.17;;
14984;SDS011;7588;62.368;25.902;2023-02-26T00:30:19;5.37;;;4.87;;
14984;SDS011;7588;62.368;25.902;2023-02-26T00:32:45;7.87;;;4.93;;
14984;SDS011;7588;62.368;25.902;2023-02-26T00:35:12;6.10;;;4.27;;
14984;SDS011;7588;62.368;25.902;2023-02-26T00:42:49;5.17;;;4.33;;
14984;SDS011;7588;62.368;25.902;2023-02-26T00:45:16;7.20;;;5.57;;
14984;SDS011;7588;62.368;25.902;2023-02-26T00:47:57;10.63;;;6.07;;
14984;SDS011;7588;62.368;25.902;2023-02-26T00:50:32;5.90;;;5.30;;
14984;SDS011;7588;62.368;25.902;2023-02-26T00:53:07;5.20;;;4.80;;
14984;SDS011;7588;62.368;25.902;2023-02-26T00:55:42;6.40;;;5.17;;
14984;SDS011;7588;62.368;25.902;2023-02-26T00:58:08;5.27;;;4.27;;
14984;SDS011;7588;62.368;25.902;2023-02-26T01:00:34;5.13;;;4.73;;
14984;SDS011;7588;62.368;25.902;2023-02-26T01:02:59;5.57;;;4.47;;
14984;SDS011;7588;62.368;25.902;2023-02-26T01:05:25;6.43;;;4.43;;
14984;SDS011;7588;62.368;25.902;2023-02-26T01:10:39;5.47;;;4.67;;
14984;SDS011;7588;62.368;25.902;2023-02-26T01:13:06;4.77;;;4.40;;
14984;SDS011;7588;62.368;25.902;2023-02-26T01:15:32;4.37;;;3.97;;
14984;SDS011;7588;62.368;25.902;2023-02-26T01:18:08;6.43;;;4.90;;
14984;SDS011;7588;62.368;25.902;2023-02-26T01:20:46;6.97;;;4.83;;
14984;SDS011;7588;62.368;25.902;2023-02-26T01:23:15;4.47;;;4.07;;
14984;SDS011;7588;62.368;25.902;2023-02-26T01:25:54;5.57;;;4.97;;
14984;SDS011;7588;62.368;25.902;2023-02-26T01:28:24;7.93;;;4.97;;
14984;SDS011;7588;62.368;25.902;2023-02-26T01:30:55;4.93;;;4.43;;
14984;SDS011;7588;62.368;25.902;2023-02-26T01:33:28;7.37;;;4.40;;
14984;SDS011;7588;62.368;25.902;2023-02-26T01:49:22;5.50;;;5.00;;
14984;SDS011;7588;62.368;25.902;2023-02-26T01:51:49;6.23;;;5.40;;
14984;SDS011;7588;62.368;25.902;2023-02-26T01:54:19;6.37;;;4.70;;
14984;SDS011;7588;62.368;25.902;2023-02-26T01:56:47;7.83;;;5.03;;
14984;SDS011;7588;62.368;25.902;2023-02-26T01:59:20;4.97;;;4.43;;
14984;SDS011;7588;62.368;25.902;2023-02-26T02:01:49;6.07;;;5.30;;
14984;SDS011;7588;62.368;25.902;2023-02-26T02:04:17;4.53;;;4.13;;
14984;SDS011;7588;62.368;25.902;2023-02-26T02:06:44;5.27;;;4.77;;
14984;SDS011;7588;62.368;25.902;2023-02-26T02:09:11;5.23;;;4.40;;
14984;SDS011;7588;62.368;25.902;2023-02-26T02:11:46;5.20;;;4.70;;
14984;SDS011;7588;62.368;25.902;2023-02-26T02:33:04;5.37;;;4.97;;
14984;SDS011;7588;62.368;25.902;2023-02-26T02:35:40;9.03;;;5.80;;
14984;SDS011;7588;62.368;25.902;2023-02-26T02:38:18;6.57;;;5.90;;
14984;SDS011;7588;62.368;25.902;2023-02-26T02:40:51;7.63;;;4.87;;
14984;SDS011;7588;62.368;25.902;2023-02-26T02:43:24;4.93;;;4.53;;
14984;SDS011;7588;62.368;25.902;2023-02-26T02:48:25;5.57;;;4.60;;
14984;SDS011;7588;62.368;25.902;2023-02-26T02:53:50;5.57;;;3.70;;
14984;SDS011;7588;62.368;25.902;2023-02-26T02:56:55;5.67;;;5.07;;
14984;SDS011;7588;62.368;25.902;2023-02-26T02:59:21;4.93;;;4.47;;
14984;SDS011;7588;62.368;25.902;2023-02-26T03:01:52;6.23;;;5.23;;
14984;SDS011;7588;62.368;25.902;2023-02-26T03:04:25;8.60;;;4.97;;
14984;SDS011;7588;62.368;25.902;2023-02-26T03:06:51;6.80;;;4.80;;
14984;SDS011;7588;62.368;25.902;2023-02-26T03:09:17;4.60;;;4.20;;
14984;SDS011;7588;62.368;25.902;2023-02-26T03:11:43;8.00;;;4.60;;
14984;SDS011;7588;62.368;25.902;2023-02-26T03:14:08;5.83;;;5.33;;
14984;SDS011;7588;62.368;25.902;2023-02-26T03:22:19;8.83;;;5.50;;
14984;SDS011;7588;62.368;25.902;2023-02-26T03:25:15;5.63;;;4.93;;
14984;SDS011;7588;62.368;25.902;2023-02-26T03:36:20;6.17;;;5.47;;
14984;SDS011;7588;62.368;25.902;2023-02-26T03:41:44;5.67;;;5.13;;
14984;SDS011;7588;62.368;25.902;2023-02-26T03:44:17;6.87;;;4.83;;
14984;SDS011;7588;62.368;25.902;2023-02-26T03:46:50;5.50;;;4.63;;
14984;SDS011;7588;62.368;25.902;2023-02-26T03:49:29;4.57;;;4.20;;
14984;SDS011;7588;62.368;25.902;2023-02-26T03:51:59;6.50;;;5.13;;
14984;SDS011;7588;62.368;25.902;2023-02-26T03:54:30;6.47;;;5.73;;
14984;SDS011;7588;62.368;25.902;2023-02-26T03:57:12;9.33;;;6.30;;
14984;SDS011;7588;62.368;25.902;2023-02-26T03:59:38;7.13;;;4.70;;
14984;SDS011;7588;62.368;25.902;2023-02-26T04:02:11;6.10;;;4.47;;
14984;SDS011;7588;62.368;25.902;2023-02-26T04:04:43;7.93;;;5.37;;
14984;SDS011;7588;62.368;25.902;2023-02-26T04:07:10;4.80;;;4.47;;
14984;SDS011;7588;62.368;25.902;2023-02-26T04:09:42;5.73;;;5.00;;
14984;SDS011;7588;62.368;25.902;2023-02-26T04:12:09;4.57;;;4.20;;
14984;SDS011;7588;62.368;25.902;2023-02-26T04:14:35;4.40;;;4.00;;
14984;SDS011;7588;62.368;25.902;2023-02-26T04:17:01;7.40;;;6.00;;
14984;SDS011;7588;62.368;25.902;2023-02-26T04:19:28;6.03;;;4.60;;
14984;SDS011;7588;62.368;25.902;2023-02-26T04:21:53;4.57;;;4.17;;
14984;SDS011;7588;62.368;25.902;2023-02-26T04:24:19;6.57;;;4.93;;
14984;SDS011;7588;62.368;25.902;2023-02-26T04:26:45;5.27;;;4.73;;
14984;SDS011;7588;62.368;25.902;2023-02-26T04:29:11;5.30;;;4.87;;
14984;SDS011;7588;62.368;25.902;2023-02-26T04:31:36;5.87;;;4.30;;
14984;SDS011;7588;62.368;25.902;2023-02-26T04:34:02;5.60;;;5.10;;
14984;SDS011;7588;62.368;25.902;2023-02-26T04:36:28;4.03;;;3.73;;
14984;SDS011;7588;62.368;25.902;2023-02-26T04:38:54;5.70;;;4.40;;
14984;SDS011;7588;62.368;25.902;2023-02-26T04:41:20;6.27;;;4.67;;
14984;SDS011;7588;62.368;25.902;2023-02-26T04:43:46;6.17;;;5.17;;
14984;SDS011;7588;62.368;25.902;2023-02-26T04:46:12;9.13;;;4.43;;
14984;SDS011;7588;62.368;25.902;2023-02-26T04:48:38;5.80;;;5.30;;
14984;SDS011;7588;62.368;25.902;2023-02-26T04:51:04;6.03;;;5.37;;
14984;SDS011;7588;62.368;25.902;2023-02-26T04:53:29;5.77;;;5.23;;
14984;SDS011;7588;62.368;25.902;2023-02-26T04:55:55;5.73;;;4.73;;
14984;SDS011;7588;62.368;25.902;2023-02-26T04:58:21;5.50;;;4.20;;
14984;SDS011;7588;62.368;25.902;2023-02-26T05:00:48;7.50;;;4.40;;
14984;SDS011;7588;62.368;25.902;2023-02-26T05:03:18;6.53;;;4.97;;
14984;SDS011;7588;62.368;25.902;2023-02-26T05:05:44;6.07;;;5.03;;
14984;SDS011;7588;62.368;25.902;2023-02-26T05:08:10;8.13;;;4.60;;
14984;SDS011;7588;62.368;25.902;2023-02-26T05:10:36;5.93;;;4.77;;
14984;SDS011;7588;62.368;25.902;2023-02-26T05:13:02;5.57;;;4.90;;
14984;SDS011;7588;62.368;25.902;2023-02-26T05:15:28;5.27;;;4.63;;
14984;SDS011;7588;62.368;25.902;2023-02-26T05:17:53;5.33;;;4.27;;
14984;SDS011;7588;62.368;25.902;2023-02-26T05:20:19;7.50;;;6.17;;
14984;SDS011;7588;62.368;25.902;2023-02-26T05:22:46;6.70;;;4.93;;
14984;SDS011;7588;62.368;25.902;2023-02-26T05:25:11;7.63;;;4.57;;
14984;SDS011;7588;62.368;25.902;2023-02-26T05:27:37;5.57;;;4.83;;
14984;SDS011;7588;62.368;25.902;2023-02-26T05:30:04;7.70;;;4.53;;
14984;SDS011;7588;62.368;25.902;2023-02-26T05:32:31;6.53;;;4.83;;
14984;SDS011;7588;62.368;25.902;2023-02-26T05:34:57;5.83;;;5.40;;
14984;SDS011;7588;62.368;25.902;2023-02-26T05:37:22;7.90;;;5.30;;
14984;SDS011;7588;62.368;25.902;2023-02-26T05:39:48;8.07;;;5.00;;
14984;SDS011;7588;62.368;25.902;2023-02-26T05:42:14;6.17;;;5.53;;
14984;SDS011;7588;62.368;25.902;2023-02-26T05:44:40;8.70;;;4.80;;
14984;SDS011;7588;62.368;25.902;2023-02-26T05:47:05;5.40;;;4.30;;
14984;SDS011;7588;62.368;25.902;2023-02-26T05:49:31;10.10;;;5.80;;
14984;SDS011;7588;62.368;25.902;2023-02-26T05:51:57;7.90;;;5.53;;
14984;SDS011;7588;62.368;25.902;2023-02-26T05:54:22;6.90;;;6.07;;
14984;SDS011;7588;62.368;25.902;2023-02-26T05:56:48;7.13;;;5.77;;
14984;SDS011;7588;62.368;25.902;2023-02-26T05:59:15;5.87;;;4.40;;
14984;SDS011;7588;62.368;25.902;2023-02-26T06:01:41;7.90;;;5.47;;
14984;SDS011;7588;62.368;25.902;2023-02-26T06:04:07;5.47;;;4.93;;
14984;SDS011;7588;62.368;25.902;2023-02-26T06:06:33;8.40;;;5.83;;
14984;SDS011;7588;62.368;25.902;2023-02-26T06:08:59;7.37;;;5.90;;
14984;SDS011;7588;62.368;25.902;2023-02-26T06:11:26;6.27;;;5.23;;
14984;SDS011;7588;62.368;25.902;2023-02-26T06:13:55;8.10;;;4.80;;
14984;SDS011;7588;62.368;25.902;2023-02-26T06:16:21;6.60;;;5.03;;
14984;SDS011;7588;62.368;25.902;2023-02-26T06:18:47;6.80;;;5.50;;
14984;SDS011;7588;62.368;25.902;2023-02-26T06:21:14;6.37;;;5.20;;
14984;SDS011;7588;62.368;25.902;2023-02-26T06:23:40;7.23;;;6.53;;
14984;SDS011;7588;62.368;25.902;2023-02-26T06:26:06;6.87;;;5.43;;
14984;SDS011;7588;62.368;25.902;2023-02-26T06:28:32;7.67;;;5.53;;
14984;SDS011;7588;62.368;25.902;2023-02-26T06:30:58;9.10;;;6.93;;
14984;SDS011;7588;62.368;25.902;2023-02-26T06:33:23;8.20;;;5.13;;
14984;SDS011;7588;62.368;25.902;2023-02-26T06:35:50;8.37;;;5.10;;
14984;SDS011;7588;62.368;25.902;2023-02-26T06:38:15;6.17;;;5.37;;
14984;SDS011;7588;62.368;25.902;2023-02-26T06:40:41;6.07;;;5.03;;
14984;SDS011;7588;62.368;25.902;2023-02-26T06:43:08;12.63;;;9.30;;
14984;SDS011;7588;62.368;25.902;2023-02-26T06:45:34;7.47;;;5.83;;
14984;SDS011;7588;62.368;25.902;2023-02-26T06:48:00;7.10;;;5.10;;
14984;SDS011;7588;62.368;25.902;2023-02-26T06:50:26;11.20;;;6.57;;
14984;SDS011;7588;62.368;25.902;2023-02-26T06:52:52;9.87;;;6.23;;
14984;SDS011;7588;62.368;25.902;2023-02-26T06:55:18;7.37;;;5.07;;
14984;SDS011;7588;62.368;25.902;2023-02-26T06:57:45;7.93;;;5.63;;
14984;SDS011;7588;62.368;25.902;2023-02-26T07:00:12;9.60;;;5.77;;
14984;SDS011;7588;62.368;25.902;2023-02-26T07:02:38;8.63;;;5.30;;
14984;SDS011;7588;62.368;25.902;2023-02-26T07:05:04;6.03;;;4.47;;
14984;SDS011;7588;62.368;25.902;2023-02-26T07:07:30;8.57;;;6.83;;
14984;SDS011;7588;62.368;25.902;2023-02-26T07:09:55;7.90;;;5.77;;
14984;SDS011;7588;62.368;25.902;2023-02-26T07:12:21;7.60;;;5.30;;
14984;SDS011;7588;62.368;25.902;2023-02-26T07:14:47;6.93;;;5.20;;
14984;SDS011;7588;62.368;25.902;2023-02-26T07:17:12;6.80;;;6.20;;
14984;SDS011;7588;62.368;25.902;2023-02-26T07:19:48;7.83;;;5.80;;
14984;SDS011;7588;62.368;25.902;2023-02-26T07:22:15;6.90;;;6.20;;
14984;SDS011;7588;62.368;25.902;2023-02-26T07:24:43;7.60;;;6.37;;
14984;SDS011;7588;62.368;25.902;2023-02-26T07:27:09;7.57;;;6.67;;
14984;SDS011;7588;62.368;25.902;2023-02-26T07:29:35;7.83;;;6.20;;
14984;SDS011;7588;62.368;25.902;2023-02-26T07:32:01;8.63;;;6.77;;
14984;SDS011;7588;62.368;25.902;2023-02-26T07:34:27;8.87;;;7.67;;
14984;SDS011;7588;62.368;25.902;2023-02-26T07:36:53;8.53;;;6.33;;
14984;SDS011;7588;62.368;25.902;2023-02-26T07:39:19;10.53;;;6.40;;
14984;SDS011;7588;62.368;25.902;2023-02-26T07:41:44;9.37;;;6.53;;
14984;SDS011;7588;62.368;25.902;2023-02-26T07:44:11;12.13;;;6.47;;
14984;SDS011;7588;62.368;25.902;2023-02-26T07:46:37;7.03;;;6.33;;
14984;SDS011;7588;62.368;25.902;2023-02-26T07:49:02;8.50;;;6.60;;
14984;SDS011;7588;62.368;25.902;2023-02-26T07:51:28;7.77;;;6.73;;
14984;SDS011;7588;62.368;25.902;2023-02-26T07:53:54;8.40;;;6.80;;
14984;SDS011;7588;62.368;25.902;2023-02-26T07:56:19;8.87;;;5.90;;
14984;SDS011;7588;62.368;25.902;2023-02-26T07:58:45;10.63;;;7.90;;
14984;SDS011;7588;62.368;25.902;2023-02-26T08:01:11;10.07;;;6.60;;
14984;SDS011;7588;62.368;25.902;2023-02-26T08:03:36;7.90;;;6.57;;
14984;SDS011;7588;62.368;25.902;2023-02-26T08:06:02;11.47;;;7.67;;
14984;SDS011;7588;62.368;25.902;2023-02-26T08:08:29;10.33;;;7.10;;
14984;SDS011;7588;62.368;25.902;2023-02-26T08:10:58;7.90;;;6.73;;
14984;SDS011;7588;62.368;25.902;2023-02-26T08:13:24;9.60;;;7.07;;
14984;SDS011;7588;62.368;25.902;2023-02-26T08:15:50;10.63;;;6.70;;
14984;SDS011;7588;62.368;25.902;2023-02-26T08:18:16;8.37;;;5.67;;
14984;SDS011;7588;62.368;25.902;2023-02-26T08:20:41;7.13;;;6.17;;
14984;SDS011;7588;62.368;25.902;2023-02-26T08:23:07;9.77;;;6.00;;
14984;SDS011;7588;62.368;25.902;2023-02-26T08:25:33;8.40;;;6.40;;
14984;SDS011;7588;62.368;25.902;2023-02-26T08:27:59;8.63;;;6.63;;
14984;SDS011;7588;62.368;25.902;2023-02-26T08:30:25;8.80;;;5.80;;
14984;SDS011;7588;62.368;25.902;2023-02-26T08:32:52;6.93;;;5.77;;
14984;SDS011;7588;62.368;25.902;2023-02-26T08:35:18;7.90;;;5.60;;
14984;SDS011;7588;62.368;25.902;2023-02-26T08:37:43;7.57;;;5.90;;
14984;SDS011;7588;62.368;25.902;2023-02-26T08:40:09;7.77;;;6.30;;
14984;SDS011;7588;62.368;25.902;2023-02-26T08:42:35;8.00;;;5.50;;
14984;SDS011;7588;62.368;25.902;2023-02-26T08:45:01;8.20;;;5.80;;
14984;SDS011;7588;62.368;25.902;2023-02-26T08:47:27;6.27;;;5.00;;
14984;SDS011;7588;62.368;25.902;2023-02-26T08:49:53;7.43;;;5.73;;
14984;SDS011;7588;62.368;25.902;2023-02-26T08:52:19;8.37;;;4.93;;
14984;SDS011;7588;62.368;25.902;2023-02-26T08:54:45;8.77;;;6.53;;
14984;SDS011;7588;62.368;25.902;2023-02-26T08:57:11;8.57;;;6.13;;
14984;SDS011;7588;62.368;25.902;2023-02-26T08:59:37;8.17;;;7.17;;
14984;SDS011;7588;62.368;25.902;2023-02-26T09:02:02;9.10;;;6.23;;
14984;SDS011;7588;62.368;25.902;2023-02-26T09:04:28;9.00;;;6.57;;
14984;SDS011;7588;62.368;25.902;2023-02-26T09:06:54;10.17;;;7.23;;
14984;SDS011;7588;62.368;25.902;2023-02-26T09:09:20;7.33;;;5.87;;
14984;SDS011;7588;62.368;25.902;2023-02-26T09:11:45;9.07;;;6.80;;
14984;SDS011;7588;62.368;25.902;2023-02-26T09:14:11;7.77;;;6.43;;
14984;SDS011;7588;62.368;25.902;2023-02-26T09:16:38;8.87;;;6.17;;
14984;SDS011;7588;62.368;25.902;2023-02-26T09:19:04;7.97;;;5.73;;
14984;SDS011;7588;62.368;25.902;2023-02-26T09:21:31;6.87;;;5.50;;
14984;SDS011;7588;62.368;25.902;2023-02-26T09:23:57;9.43;;;6.30;;
14984;SDS011;7588;62.368;25.902;2023-02-26T09:26:23;7.40;;;5.20;;
14984;SDS011;7588;62.368;25.902;2023-02-26T09:28:49;10.30;;;5.80;;
14984;SDS011;7588;62.368;25.902;2023-02-26T09:31:15;8.27;;;5.57;;
14984;SDS011;7588;62.368;25.902;2023-02-26T09:33:41;7.20;;;5.37;;
14984;SDS011;7588;62.368;25.902;2023-02-26T09:36:07;8.20;;;5.97;;
14984;SDS011;7588;62.368;25.902;2023-02-26T09:38:33;7.70;;;5.77;;
14984;SDS011;7588;62.368;25.902;2023-02-26T09:41:06;8.27;;;5.70;;
14984;SDS011;7588;62.368;25.902;2023-02-26T09:48:49;8.47;;;7.03;;
14984;SDS011;7588;62.368;25.902;2023-02-26T09:51:20;9.10;;;6.67;;
14984;SDS011;7588;62.368;25.902;2023-02-26T09:53:48;9.33;;;6.87;;
14984;SDS011;7588;62.368;25.902;2023-02-26T09:56:16;8.90;;;6.80;;
14984;SDS011;7588;62.368;25.902;2023-02-26T09:58:48;8.43;;;7.00;;
14984;SDS011;7588;62.368;25.902;2023-02-26T10:01:23;9.33;;;6.23;;
14984;SDS011;7588;62.368;25.902;2023-02-26T10:12:07;9.17;;;6.67;;
14984;SDS011;7588;62.368;25.902;2023-02-26T10:14:51;9.20;;;6.97;;
14984;SDS011;7588;62.368;25.902;2023-02-26T10:17:27;10.20;;;7.10;;
14984;SDS011;7588;62.368;25.902;2023-02-26T10:19:59;11.40;;;6.80;;
14984;SDS011;7588;62.368;25.902;2023-02-26T10:22:36;9.23;;;6.70;;
14984;SDS011;7588;62.368;25.902;2023-02-26T10:25:11;8.90;;;7.20;;
14984;SDS011;7588;62.368;25.902;2023-02-26T10:31:02;9.90;;;6.90;;
14984;SDS011;7588;62.368;25.902;2023-02-26T10:33:40;11.50;;;8.23;;
14984;SDS011;7588;62.368;25.902;2023-02-26T10:36:29;11.87;;;9.43;;
14984;SDS011;7588;62.368;25.902;2023-02-26T10:39:28;10.93;;;7.70;;
14984;SDS011;7588;62.368;25.902;2023-02-26T10:42:11;9.13;;;6.67;;
14984;SDS011;7588;62.368;25.902;2023-02-26T10:45:16;7.37;;;5.53;;
14984;SDS011;7588;62.368;25.902;2023-02-26T10:50:34;7.43;;;6.17;;
14984;SDS011;7588;62.368;25.902;2023-02-26T10:53:03;8.77;;;6.40;;
14984;SDS011;7588;62.368;25.902;2023-02-26T10:55:45;7.63;;;6.10;;
14984;SDS011;7588;62.368;25.902;2023-02-26T10:58:22;7.37;;;6.13;;
14984;SDS011;7588;62.368;25.902;2023-02-26T11:00:49;7.57;;;6.40;;
14984;SDS011;7588;62.368;25.902;2023-02-26T11:05:57;8.17;;;5.60;;
14984;SDS011;7588;62.368;25.902;2023-02-26T11:08:28;7.50;;;5.87;;
14984;SDS011;7588;62.368;25.902;2023-02-26T11:10:59;9.23;;;6.13;;
14984;SDS011;7588;62.368;25.902;2023-02-26T11:13:26;10.23;;;7.43;;
14984;SDS011;7588;62.368;25.902;2023-02-26T11:15:56;7.80;;;6.20;;
14984;SDS011;7588;62.368;25.902;2023-02-26T11:18:35;8.43;;;6.13;;
14984;SDS011;7588;62.368;25.902;2023-02-26T11:21:15;9.60;;;6.30;;
14984;SDS011;7588;62.368;25.902;2023-02-26T11:23:43;8.87;;;6.83;;
14984;SDS011;7588;62.368;25.902;2023-02-26T11:26:17;9.70;;;6.80;;
14984;SDS011;7588;62.368;25.902;2023-02-26T11:28:49;8.27;;;6.43;;
14984;SDS011;7588;62.368;25.902;2023-02-26T11:31:20;10.50;;;7.43;;
14984;SDS011;7588;62.368;25.902;2023-02-26T11:33:52;7.57;;;6.40;;
14984;SDS011;7588;62.368;25.902;2023-02-26T11:36:23;7.83;;;6.67;;
14984;SDS011;7588;62.368;25.902;2023-02-26T11:39:10;8.90;;;6.53;;
14984;SDS011;7588;62.368;25.902;2023-02-26T11:41:50;8.70;;;7.07;;
14984;SDS011;7588;62.368;25.902;2023-02-26T11:44:20;8.63;;;6.30;;
14984;SDS011;7588;62.368;25.902;2023-02-26T11:46:55;11.20;;;6.43;;
14984;SDS011;7588;62.368;25.902;2023-02-26T11:49:23;7.90;;;6.00;;
14984;SDS011;7588;62.368;25.902;2023-02-26T12:07:13;9.63;;;5.80;;
14984;SDS011;7588;62.368;25.902;2023-02-26T12:09:41;8.20;;;6.10;;
14984;SDS011;7588;62.368;25.902;2023-02-26T12:20:38;7.87;;;5.60;;
14984;SDS011;7588;62.368;25.902;2023-02-26T12:26:32;8.03;;;6.53;;
14984;SDS011;7588;62.368;25.902;2023-02-26T12:32:46;8.83;;;7.10;;
14984;SDS011;7588;62.368;25.902;2023-02-26T12:43:52;9.67;;;7.00;;
14984;SDS011;7588;62.368;25.902;2023-02-26T12:49:17;9.33;;;6.17;;
14984;SDS011;7588;62.368;25.902;2023-02-26T12:54:56;10.03;;;7.50;;
14984;SDS011;7588;62.368;25.902;2023-02-26T12:57:49;9.30;;;6.10;;
14984;SDS011;7588;62.368;25.902;2023-02-26T13:00:41;9.50;;;7.20;;
14984;SDS011;7588;62.368;25.902;2023-02-26T13:11:46;8.63;;;5.93;;
14984;SDS011;7588;62.368;25.902;2023-02-26T13:14:24;9.03;;;5.47;;
14984;SDS011;7588;62.368;25.902;2023-02-26T13:22:32;8.23;;;5.90;;
14984;SDS011;7588;62.368;25.902;2023-02-26T13:25:15;8.13;;;6.53;;
14984;SDS011;7588;62.368;25.902;2023-02-26T13:28:01;8.53;;;5.90;;
14984;SDS011;7588;62.368;25.902;2023-02-26T13:30:44;6.77;;;5.93;;
14984;SDS011;7588;62.368;25.902;2023-02-26T13:33:17;7.57;;;5.90;;
14984;SDS011;7588;62.368;25.902;2023-02-26T13:35:47;7.87;;;6.37;;
14984;SDS011;7588;62.368;25.902;2023-02-26T13:51:55;9.13;;;6.57;;
14984;SDS011;7588;62.368;25.902;2023-02-26T14:02:53;7.77;;;6.43;;
14984;SDS011;7588;62.368;25.902;2023-02-26T14:10:31;7.83;;;6.27;;
14984;SDS011;7588;62.368;25.902;2023-02-26T14:13:42;8.70;;;5.97;;
14984;SDS011;7588;62.368;25.902;2023-02-26T14:16:27;8.80;;;6.97;;
14984;SDS011;7588;62.368;25.902;2023-02-26T14:19:02;7.27;;;6.53;;
14984;SDS011;7588;62.368;25.902;2023-02-26T14:24:16;7.87;;;6.80;;
14984;SDS011;7588;62.368;25.902;2023-02-26T14:26:50;7.03;;;5.70;;
14984;SDS011;7588;62.368;25.902;2023-02-26T14:37:55;8.83;;;6.53;;
14984;SDS011;7588;62.368;25.902;2023-02-26T14:40:28;7.93;;;6.03;;
14984;SDS011;7588;62.368;25.902;2023-02-26T14:43:01;7.30;;;6.57;;
14984;SDS011;7588;62.368;25.902;2023-02-26T14:45:30;9.63;;;5.83;;
14984;SDS011;7588;62.368;25.902;2023-02-26T14:48:00;9.00;;;6.90;;
14984;SDS011;7588;62.368;25.902;2023-02-26T14:59:20;7.57;;;6.67;;
14984;SDS011;7588;62.368;25.902;2023-02-26T15:01:55;8.10;;;6.27;;
14984;SDS011;7588;62.368;25.902;2023-02-26T15:12:49;9.40;;;6.67;;
14984;SDS011;7588;62.368;25.902;2023-02-26T15:20:36;10.13;;;6.93;;
14984;SDS011;7588;62.368;25.902;2023-02-26T15:25:51;7.83;;;6.10;;
14984;SDS011;7588;62.368;25.902;2023-02-26T15:28:38;8.73;;;6.50;;
14984;SDS011;7588;62.368;25.902;2023-02-26T15:31:05;9.40;;;6.70;;
14984;SDS011;7588;62.368;25.902;2023-02-26T15:33:33;8.60;;;6.33;;
14984;SDS011;7588;62.368;25.902;2023-02-26T15:36:00;8.50;;;7.03;;
14984;SDS011;7588;62.368;25.902;2023-02-26T15:38:40;8.37;;;6.97;;
14984;SDS011;7588;62.368;25.902;2023-02-26T15:41:28;9.23;;;6.77;;
14984;SDS011;7588;62.368;25.902;2023-02-26T15:46:52;8.80;;;7.17;;
14984;SDS011;7588;62.368;25.902;2023-02-26T15:49:24;9.87;;;7.03;;
14984;SDS011;7588;62.368;25.902;2023-02-26T15:51:54;9.77;;;6.63;;
14984;SDS011;7588;62.368;25.902;2023-02-26T15:54:22;8.10;;;6.57;;
14984;SDS011;7588;62.368;25.902;2023-02-26T15:56:52;9.67;;;6.30;;
14984;SDS011;7588;62.368;25.902;2023-02-26T16:01:50;8.23;;;6.50;;
14984;SDS011;7588;62.368;25.902;2023-02-26T16:04:19;9.23;;;6.23;;
14984;SDS011;7588;62.368;25.902;2023-02-26T16:06:47;8.57;;;6.67;;
14984;SDS011;7588;62.368;25.902;2023-02-26T16:11:46;8.57;;;6.30;;
14984;SDS011;7588;62.368;25.902;2023-02-26T16:14:21;9.10;;;5.90;;
14984;SDS011;7588;62.368;25.902;2023-02-26T16:16:50;10.10;;;7.73;;
14984;SDS011;7588;62.368;25.902;2023-02-26T16:19:34;10.07;;;7.57;;
14984;SDS011;7588;62.368;25.902;2023-02-26T16:22:13;9.23;;;6.97;;
14984;SDS011;7588;62.368;25.902;2023-02-26T16:24:56;9.67;;;6.03;;
14984;SDS011;7588;62.368;25.902;2023-02-26T16:27:29;8.70;;;7.63;;
14984;SDS011;7588;62.368;25.902;2023-02-26T16:29:57;10.03;;;6.90;;
14984;SDS011;7588;62.368;25.902;2023-02-26T16:32:25;9.70;;;7.43;;
14984;SDS011;7588;62.368;25.902;2023-02-26T16:34:54;8.47;;;7.17;;
14984;SDS011;7588;62.368;25.902;2023-02-26T16:45:19;7.73;;;6.30;;
14984;SDS011;7588;62.368;25.902;2023-02-26T16:47:58;8.13;;;6.20;;
14984;SDS011;7588;62.368;25.902;2023-02-26T16:50:26;7.43;;;5.90;;
14984;SDS011;7588;62.368;25.902;2023-02-26T16:52:57;9.63;;;6.47;;
14984;SDS011;7588;62.368;25.902;2023-02-26T16:55:27;8.97;;;6.80;;
14984;SDS011;7588;62.368;25.902;2023-02-26T16:57:55;10.07;;;7.07;;
14984;SDS011;7588;62.368;25.902;2023-02-26T17:00:22;8.80;;;5.83;;
14984;SDS011;7588;62.368;25.902;2023-02-26T17:03:02;10.20;;;7.40;;
14984;SDS011;7588;62.368;25.902;2023-02-26T17:05:36;9.63;;;7.47;;
14984;SDS011;7588;62.368;25.902;2023-02-26T17:08:16;7.30;;;6.33;;
14984;SDS011;7588;62.368;25.902;2023-02-26T17:13:14;11.23;;;7.93;;
14984;SDS011;7588;62.368;25.902;2023-02-26T17:15:40;11.10;;;7.57;;
14984;SDS011;7588;62.368;25.902;2023-02-26T17:18:06;8.07;;;7.00;;
14984;SDS011;7588;62.368;25.902;2023-02-26T17:20:32;9.93;;;7.60;;
14984;SDS011;7588;62.368;25.902;2023-02-26T17:22:59;10.23;;;6.93;;
14984;SDS011;7588;62.368;25.902;2023-02-26T17:25:29;12.13;;;8.47;;
14984;SDS011;7588;62.368;25.902;2023-02-26T17:27:58;11.20;;;9.07;;
14984;SDS011;7588;62.368;25.902;2023-02-26T17:30:26;11.63;;;9.80;;
14984;SDS011;7588;62.368;25.902;2023-02-26T17:32:56;11.97;;;8.83;;
14984;SDS011;7588;62.368;25.902;2023-02-26T17:35:22;13.50;;;9.30;;
14984;SDS011;7588;62.368;25.902;2023-02-26T17:37:47;9.53;;;8.47;;
14984;SDS011;7588;62.368;25.902;2023-02-26T17:42:50;11.10;;;9.03;;
14984;SDS011;7588;62.368;25.902;2023-02-26T17:45:16;9.57;;;7.70;;
14984;SDS011;7588;62.368;25.902;2023-02-26T17:47:44;10.73;;;7.67;;
14984;SDS011;7588;62.368;25.902;2023-02-26T17:53:11;9.63;;;7.77;;
14984;SDS011;7588;62.368;25.902;2023-02-26T17:55:37;9.37;;;7.97;;
14984;SDS011;7588;62.368;25.902;2023-02-26T17:58:04;12.80;;;8.33;;
14984;SDS011;7588;62.368;25.902;2023-02-26T18:00:31;10.10;;;7.63;;
14984;SDS011;7588;62.368;25.902;2023-02-26T18:03:03;13.00;;;8.63;;
14984;SDS011;7588;62.368;25.902;2023-02-26T18:05:29;11.47;;;7.53;;
14984;SDS011;7588;62.368;25.902;2023-02-26T18:07:57;16.53;;;8.27;;
14984;SDS011;7588;62.368;25.902;2023-02-26T18:10:23;11.23;;;7.67;;
14984;SDS011;7588;62.368;25.902;2023-02-26T18:12:49;8.43;;;6.93;;
14984;SDS011;7588;62.368;25.902;2023-02-26T18:15:15;10.47;;;7.33;;
14984;SDS011;7588;62.368;25.902;2023-02-26T18:17:40;11.90;;;7.20;;
14984;SDS011;7588;62.368;25.902;2023-02-26T18:20:10;8.60;;;7.17;;
14984;SDS011;7588;62.368;25.902;2023-02-26T18:22:42;11.80;;;8.50;;
14984;SDS011;7588;62.368;25.902;2023-02-26T18:25:10;10.43;;;7.53;;
14984;SDS011;7588;62.368;25.902;2023-02-26T18:27:36;7.80;;;6.37;;
14984;SDS011;7588;62.368;25.902;2023-02-26T18:30:02;10.07;;;6.70;;
14984;SDS011;7588;62.368;25.902;2023-02-26T18:32:28;7.97;;;6.10;;
14984;SDS011;7588;62.368;25.902;2023-02-26T18:34:54;9.53;;;7.37;;
14984;SDS011;7588;62.368;25.902;2023-02-26T18:37:21;8.07;;;7.27;;
14984;SDS011;7588;62.368;25.902;2023-02-26T18:39:49;8.93;;;7.80;;
14984;SDS011;7588;62.368;25.902;2023-02-26T18:44:46;12.33;;;8.73;;
14984;SDS011;7588;62.368;25.902;2023-02-26T18:47:12;9.50;;;7.53;;
14984;SDS011;7588;62.368;25.902;2023-02-26T18:49:37;14.40;;;9.80;;
14984;SDS011;7588;62.368;25.902;2023-02-26T18:52:03;9.80;;;7.53;;
14984;SDS011;7588;62.368;25.902;2023-02-26T18:54:29;9.80;;;7.83;;
14984;SDS011;7588;62.368;25.902;2023-02-26T18:56:54;10.53;;;9.47;;